createdAt,value
2018-09-10T00:01:38.469Z,80.10
2018-09-10T00:04:08.215Z,80.10
2018-09-10T00:06:37.925Z,79.50
2018-09-10T00:09:09.352Z,79.70
2018-09-10T00:11:39.385Z,79.30
2018-09-10T00:14:09.104Z,79.20
2018-09-10T00:16:39.002Z,79.10
2018-09-10T00:19:08.728Z,79.30
2018-09-10T00:21:38.341Z,79.40
2018-09-10T00:24:08.109Z,79.30
2018-09-10T00:26:37.771Z,78.90
2018-09-10T00:29:07.496Z,79.00
2018-09-10T00:31:37.193Z,79.30
2018-09-10T00:34:06.877Z,78.70
2018-09-10T00:36:36.656Z,79.30
2018-09-10T00:39:09.972Z,79.00
2018-09-10T00:41:39.981Z,79.40
2018-09-10T00:44:09.927Z,78.20
2018-09-10T00:46:40.028Z,79.00
2018-09-10T00:49:09.821Z,78.30
2018-09-10T00:51:39.472Z,78.70
2018-09-10T00:54:09.167Z,79.00
2018-09-10T00:56:39.369Z,79.60
2018-09-10T00:59:09.160Z,80.30
2018-09-10T01:01:38.817Z,80.30
2018-09-10T01:04:08.604Z,79.30
2018-09-10T01:06:38.249Z,78.60
2018-09-10T01:09:09.167Z,78.60
2018-09-10T01:11:39.440Z,78.20
2018-09-10T01:14:09.461Z,78.90
2018-09-10T01:16:39.131Z,79.50
2018-09-10T01:19:08.808Z,79.30
2018-09-10T01:21:38.470Z,79.50
2018-09-10T01:24:08.248Z,79.40
2018-09-10T01:26:37.935Z,80.10
2018-09-10T01:29:07.624Z,80.50
2018-09-10T01:31:37.256Z,80.40
2018-09-10T01:34:11.846Z,81.90
2018-09-10T01:36:41.628Z,81.50
2018-09-10T01:39:11.389Z,81.30
2018-09-10T01:41:41.013Z,83.50
2018-09-10T01:44:10.700Z,82.30
2018-09-10T01:46:40.548Z,82.80
2018-09-10T01:49:10.139Z,82.90
2018-09-10T01:51:39.778Z,81.20
2018-09-10T01:54:09.493Z,80.50
2018-09-10T01:56:39.347Z,81.20
2018-09-10T01:59:09.079Z,80.70
2018-09-10T02:01:38.800Z,80.70
2018-09-10T02:04:08.625Z,80.70
2018-09-10T02:06:38.391Z,80.70
2018-09-10T02:09:09.327Z,81.20
2018-09-10T02:11:39.078Z,81.20
2018-09-10T02:14:11.329Z,81.90
2018-09-10T02:16:46.272Z,81.30
2018-09-10T02:19:18.775Z,81.30
2018-09-10T02:21:50.749Z,82.10
2018-09-10T02:24:20.597Z,82.10
2018-09-10T02:26:50.229Z,81.80
2018-09-10T02:29:20.080Z,82.30
2018-09-10T02:31:49.775Z,81.60
2018-09-10T02:34:19.347Z,81.80
2018-09-10T02:36:49.057Z,81.70
2018-09-10T02:39:18.683Z,81.70
2018-09-10T02:41:48.361Z,81.10
2018-09-10T02:44:18.128Z,81.60
2018-09-10T02:46:47.993Z,80.80
2018-09-10T02:49:17.649Z,80.70
2018-09-10T02:51:47.365Z,80.60
2018-09-10T02:54:17.014Z,80.60
2018-09-10T02:56:46.916Z,80.10
2018-09-10T02:59:16.680Z,80.10
2018-09-10T03:01:46.289Z,81.10
2018-09-10T03:04:15.963Z,80.00
2018-09-10T03:06:45.606Z,80.00
2018-09-10T03:09:15.431Z,79.90
2018-09-10T03:11:45.236Z,79.70
2018-09-10T03:14:15.023Z,79.30
2018-09-10T03:16:44.716Z,80.40
2018-09-10T03:19:14.436Z,80.60
2018-09-10T03:21:44.168Z,80.70
2018-09-10T03:24:14.169Z,80.60
2018-09-10T03:26:43.793Z,81.20
2018-09-10T03:29:13.401Z,81.30
2018-09-10T03:31:43.170Z,81.20
2018-09-10T03:34:12.825Z,80.50
2018-09-10T03:36:42.516Z,81.50
2018-09-10T03:39:12.369Z,81.60
2018-09-10T03:41:42.249Z,81.80
2018-09-10T03:44:11.920Z,81.30
2018-09-10T03:46:41.691Z,82.30
2018-09-10T03:49:11.611Z,80.30
2018-09-10T03:51:41.397Z,80.90
2018-09-10T03:54:10.974Z,80.00
2018-09-10T03:56:40.612Z,80.40
2018-09-10T03:59:10.240Z,80.40
2018-09-10T04:01:40.094Z,80.70
2018-09-10T04:04:09.963Z,81.00
2018-09-10T04:06:39.711Z,81.20
2018-09-10T04:09:09.949Z,81.50
2018-09-10T04:11:39.684Z,81.70
2018-09-10T04:14:09.319Z,80.80
2018-09-10T04:16:38.864Z,80.60
2018-09-10T04:19:08.693Z,80.60
2018-09-10T04:21:38.540Z,80.60
2018-09-10T04:24:08.250Z,79.80
2018-09-10T04:26:38.007Z,79.80
2018-09-10T04:29:07.676Z,79.90
2018-09-10T04:31:37.354Z,79.50
2018-09-10T04:34:07.086Z,79.60
2018-09-10T04:36:36.942Z,80.30
2018-09-10T04:39:08.932Z,80.20
2018-09-10T04:41:42.644Z,80.50
2018-09-10T04:44:12.380Z,81.00
2018-09-10T04:46:42.072Z,81.70
2018-09-10T04:49:11.757Z,81.20
2018-09-10T04:51:41.404Z,81.30
2018-09-10T04:54:11.205Z,81.70
2018-09-10T04:56:40.925Z,81.40
2018-09-10T04:59:10.635Z,81.10
2018-09-10T05:01:40.217Z,81.10
2018-09-10T05:04:09.949Z,79.20
2018-09-10T05:06:39.646Z,79.10
2018-09-10T05:09:09.860Z,78.40
2018-09-10T05:11:39.577Z,78.80
2018-09-10T05:14:09.477Z,79.00
2018-09-10T05:16:39.026Z,79.20
2018-09-10T05:19:08.804Z,80.00
2018-09-10T05:21:38.446Z,79.20
2018-09-10T05:24:08.197Z,79.20
2018-09-10T05:26:37.961Z,79.50
2018-09-10T05:29:07.824Z,79.60
2018-09-10T05:31:37.472Z,79.80
2018-09-10T05:34:07.277Z,80.50
2018-09-10T05:36:36.851Z,79.60
2018-09-10T05:39:08.331Z,78.80
2018-09-10T05:41:38.281Z,79.40
2018-09-10T05:44:08.058Z,79.20
2018-09-10T05:46:37.738Z,78.90
2018-09-10T05:49:07.393Z,78.50
2018-09-10T05:51:37.160Z,77.90
2018-09-10T05:54:06.880Z,78.50
2018-09-10T05:56:36.779Z,77.50
2018-09-10T05:59:06.536Z,77.40
2018-09-10T06:01:36.311Z,77.30
2018-09-10T06:04:06.060Z,77.10
2018-09-10T06:06:35.832Z,75.90
2018-09-10T06:09:06.466Z,76.30
2018-09-10T06:11:36.308Z,76.10
2018-09-10T06:14:06.218Z,75.20
2018-09-10T06:16:35.996Z,74.60
2018-09-10T06:19:05.709Z,73.60
2018-09-10T06:21:35.572Z,72.30
2018-09-10T06:24:05.260Z,72.40
2018-09-10T06:26:34.984Z,71.50
2018-09-10T06:29:04.700Z,70.90
2018-09-10T06:31:34.575Z,70.30
2018-09-10T06:34:04.355Z,71.50
2018-09-10T06:36:34.096Z,71.90
2018-09-10T06:39:04.479Z,71.20
2018-09-10T06:41:34.672Z,72.30
2018-09-10T06:44:04.340Z,71.30
2018-09-10T06:46:33.977Z,72.50
2018-09-10T06:49:03.586Z,70.70
2018-09-10T06:51:33.212Z,72.20
2018-09-10T06:54:03.028Z,72.60
2018-09-10T06:56:32.844Z,72.90
2018-09-10T06:59:02.440Z,72.40
2018-09-10T07:01:32.005Z,73.10
2018-09-10T07:04:01.755Z,73.20
2018-09-10T07:06:31.404Z,73.60
2018-09-10T07:09:01.132Z,73.30
2018-09-10T07:11:30.744Z,72.80
2018-09-10T07:14:00.553Z,71.90
2018-09-10T07:16:30.205Z,71.80
2018-09-10T07:18:59.918Z,72.00
2018-09-10T07:21:29.623Z,72.00
2018-09-10T07:23:59.309Z,71.50
2018-09-10T07:26:28.996Z,72.40
2018-09-10T07:28:58.654Z,70.90
2018-09-10T07:31:28.316Z,70.50
2018-09-10T07:33:58.070Z,68.30
2018-09-10T07:36:27.858Z,99.90
2018-09-10T07:38:57.587Z,99.90
2018-09-10T07:41:27.212Z,99.90
2018-09-10T07:43:57.124Z,99.90
2018-09-10T07:46:26.824Z,99.90
2018-09-10T07:48:56.515Z,42.30
2018-09-10T07:51:26.357Z,39.60
2018-09-10T07:53:56.029Z,39.50
2018-09-10T07:56:25.821Z,37.30
2018-09-10T07:58:55.580Z,35.00
2018-09-10T08:01:25.344Z,24.80
2018-09-10T08:03:55.100Z,26.60
2018-09-10T08:06:24.781Z,1.00
2018-09-10T08:08:54.520Z,20.10
2018-09-10T08:11:24.213Z,1.00
2018-09-10T08:13:54.045Z,33.00
2018-09-10T08:16:23.868Z,31.90
2018-09-10T08:18:53.724Z,28.40
2018-09-10T08:21:23.489Z,28.00
2018-09-10T08:23:53.246Z,30.00
2018-09-10T08:26:22.997Z,29.10
2018-09-10T08:28:52.764Z,29.80
2018-09-10T08:31:22.422Z,31.50
2018-09-10T08:33:52.217Z,29.40
2018-09-10T08:36:21.839Z,28.80
2018-09-10T08:38:51.465Z,31.20
2018-09-10T08:41:21.216Z,30.00
2018-09-10T08:43:50.866Z,31.20
2018-09-10T08:46:20.694Z,31.70
2018-09-10T08:48:50.390Z,30.40
2018-09-10T08:51:20.219Z,31.10
2018-09-10T08:53:50.075Z,30.20
2018-09-10T08:56:19.873Z,30.00
2018-09-10T08:58:49.589Z,29.60
2018-09-10T09:01:19.245Z,29.70
2018-09-10T09:03:49.045Z,29.90
2018-09-10T09:06:18.887Z,28.50
2018-09-10T09:08:48.547Z,28.90
2018-09-10T09:11:18.346Z,28.80
2018-09-10T09:13:48.217Z,27.80
2018-09-10T09:16:17.915Z,27.70
2018-09-10T09:18:47.720Z,27.80
2018-09-10T09:21:17.701Z,26.40
2018-09-10T09:23:47.344Z,26.30
2018-09-10T09:26:16.931Z,26.80
2018-09-10T09:28:46.521Z,26.90
2018-09-10T09:31:16.245Z,25.00
2018-09-10T09:33:45.940Z,26.40
2018-09-10T09:36:20.731Z,26.00
2018-09-10T09:38:55.431Z,25.00
2018-09-10T09:41:30.033Z,24.60
2018-09-10T09:44:04.645Z,24.70
2018-09-10T09:46:34.458Z,25.00
2018-09-10T09:49:04.219Z,24.30
2018-09-10T09:51:33.897Z,25.60
2018-09-10T09:54:03.582Z,23.80
2018-09-10T09:56:33.158Z,24.90
2018-09-10T09:59:02.911Z,25.60
2018-09-10T10:01:37.821Z,26.80
2018-09-10T10:04:10.642Z,25.20
2018-09-10T10:06:40.344Z,24.80
2018-09-10T10:09:11.480Z,25.30
2018-09-10T10:11:41.851Z,25.10
2018-09-10T10:14:12.135Z,24.30
2018-09-10T10:16:41.821Z,24.70
2018-09-10T10:19:11.484Z,26.30
2018-09-10T10:21:41.258Z,26.40
2018-09-10T10:24:10.898Z,26.60
2018-09-10T10:26:40.588Z,27.60
2018-09-10T10:29:10.280Z,29.00
2018-09-10T10:31:39.901Z,29.40
2018-09-10T10:34:09.587Z,30.70
2018-09-10T10:36:40.221Z,31.80
2018-09-10T10:39:09.963Z,33.60
2018-09-10T10:41:39.749Z,34.40
2018-09-10T10:44:09.514Z,35.00
2018-09-10T10:46:39.086Z,34.80
2018-09-10T10:49:08.932Z,37.40
2018-09-10T10:51:38.692Z,36.90
2018-09-10T10:54:08.466Z,37.00
2018-09-10T10:56:38.210Z,37.30
2018-09-10T10:59:07.856Z,38.60
2018-09-10T11:01:37.483Z,39.70
2018-09-10T11:04:07.239Z,40.20
2018-09-10T11:06:36.904Z,40.80
2018-09-10T11:09:07.920Z,41.10
2018-09-10T11:11:37.805Z,41.10
2018-09-10T11:14:07.460Z,40.20
2018-09-10T11:16:37.368Z,40.30
2018-09-10T11:19:07.081Z,40.30
2018-09-10T11:21:36.844Z,41.40
2018-09-10T11:24:06.749Z,40.20
2018-09-10T11:26:36.501Z,41.50
2018-09-10T11:29:06.123Z,40.30
2018-09-10T11:31:35.912Z,42.30
2018-09-10T11:34:05.647Z,43.60
2018-09-10T11:36:35.336Z,43.60
2018-09-10T11:39:06.049Z,43.60
2018-09-10T11:41:35.692Z,41.90
2018-09-10T11:44:05.864Z,42.40
2018-09-10T11:46:35.524Z,43.20
2018-09-10T11:49:05.312Z,43.60
2018-09-10T11:51:34.891Z,44.20
2018-09-10T11:54:04.456Z,43.90
2018-09-10T11:56:34.221Z,43.90
2018-09-10T11:59:03.879Z,43.60
2018-09-10T12:01:33.697Z,43.90
2018-09-10T12:04:03.676Z,43.80
2018-09-10T12:06:33.289Z,44.60
2018-09-10T12:09:03.085Z,45.80
2018-09-10T12:11:32.709Z,45.40
2018-09-10T12:14:02.488Z,46.00
2018-09-10T12:16:32.254Z,44.50
2018-09-10T12:19:02.116Z,45.80
2018-09-10T12:21:31.912Z,45.30
2018-09-10T12:24:01.549Z,45.30
2018-09-10T12:26:31.195Z,45.20
2018-09-10T12:29:01.218Z,46.30
2018-09-10T12:31:30.972Z,45.90
2018-09-10T12:34:00.607Z,45.60
2018-09-10T12:36:30.283Z,45.70
2018-09-10T12:39:00.025Z,44.90
2018-09-10T12:41:29.808Z,46.30
2018-09-10T12:43:59.460Z,46.80
2018-09-10T12:46:29.251Z,46.10
2018-09-10T12:48:58.985Z,45.40
2018-09-10T12:51:28.737Z,45.60
2018-09-10T12:53:58.463Z,45.80
2018-09-10T12:56:28.201Z,45.70
2018-09-10T12:58:58.064Z,45.90
2018-09-10T13:01:27.637Z,47.00
2018-09-10T13:03:57.333Z,45.70
2018-09-10T13:06:27.177Z,46.60
2018-09-10T13:08:56.852Z,46.90
2018-09-10T13:11:26.732Z,46.50
2018-09-10T13:13:56.503Z,45.60
2018-09-10T13:16:26.256Z,45.40
2018-09-10T13:18:55.814Z,46.20
2018-09-10T13:21:25.405Z,46.10
2018-09-10T13:23:55.079Z,45.40
2018-09-10T13:26:24.736Z,47.50
2018-09-10T13:28:54.497Z,46.60
2018-09-10T13:31:24.251Z,47.50
2018-09-10T13:33:54.131Z,47.40
2018-09-10T13:36:23.961Z,48.80
2018-09-10T13:38:53.759Z,48.60
2018-09-10T13:41:23.404Z,49.00
2018-09-10T13:43:53.092Z,47.80
2018-09-10T13:46:22.924Z,47.20
2018-09-10T13:48:52.509Z,48.10
2018-09-10T13:51:22.295Z,47.50
2018-09-10T13:53:52.041Z,49.40
2018-09-10T13:56:21.814Z,48.70
2018-09-10T13:58:51.478Z,49.50
2018-09-10T14:01:21.362Z,50.60
2018-09-10T14:03:51.083Z,50.90
2018-09-10T14:06:20.811Z,49.30
2018-09-10T14:08:50.900Z,50.20
2018-09-10T14:11:20.602Z,51.30
2018-09-10T14:13:50.251Z,51.50
2018-09-10T14:16:20.040Z,51.30
2018-09-10T14:18:49.773Z,51.50
2018-09-10T14:21:19.595Z,52.00
2018-09-10T14:23:49.454Z,53.10
2018-09-10T14:26:19.324Z,52.20
2018-09-10T14:31:09.865Z,51.80
2018-09-10T14:33:39.583Z,51.40
2018-09-10T14:36:09.328Z,51.40
2018-09-10T14:38:39.008Z,51.50
2018-09-10T14:41:08.808Z,52.20
2018-09-10T14:43:38.528Z,52.10
2018-09-10T14:46:08.120Z,52.70
2018-09-10T14:48:38.179Z,52.90
2018-09-10T14:51:08.268Z,52.80
2018-09-10T14:53:38.082Z,52.60
2018-09-10T14:56:08.010Z,52.90
2018-09-10T14:58:37.555Z,54.00
2018-09-10T15:01:07.052Z,53.40
2018-09-10T15:03:36.551Z,52.50
2018-09-10T15:06:06.236Z,48.80
2018-09-10T15:08:35.754Z,49.90
2018-09-10T15:11:05.565Z,51.50
2018-09-10T15:13:35.195Z,50.30
2018-09-10T15:16:04.647Z,51.00
2018-09-10T15:18:34.312Z,51.20
2018-09-10T15:21:03.968Z,50.90
2018-09-10T15:23:33.798Z,52.00
2018-09-10T15:26:03.448Z,52.90
2018-09-10T15:28:32.937Z,51.50
2018-09-10T15:31:02.675Z,52.50
2018-09-10T15:33:32.573Z,53.10
2018-09-10T15:36:02.308Z,54.50
2018-09-10T15:38:31.993Z,54.70
2018-09-10T15:41:01.603Z,54.40
2018-09-10T15:43:31.317Z,55.40
2018-09-10T15:46:00.777Z,55.00
2018-09-10T15:48:30.164Z,56.40
2018-09-10T15:50:59.703Z,56.60
2018-09-10T15:53:29.759Z,56.10
2018-09-10T15:55:59.356Z,56.80
2018-09-10T15:58:29.067Z,55.70
2018-09-10T16:00:58.460Z,55.80
2018-09-10T16:03:28.839Z,56.60
2018-09-10T16:05:58.456Z,55.60
2018-09-10T16:08:27.993Z,54.70
2018-09-10T16:10:57.653Z,56.40
2018-09-10T16:13:27.015Z,55.70
2018-09-10T16:15:56.673Z,57.30
2018-09-10T16:18:26.393Z,58.30
2018-09-10T16:20:56.480Z,56.80
2018-09-10T16:23:26.268Z,55.50
2018-09-10T16:25:56.020Z,54.30
2018-09-10T16:28:25.653Z,56.30
2018-09-10T16:30:55.287Z,59.10
2018-09-10T16:33:24.732Z,60.30
2018-09-10T16:35:54.131Z,58.80
2018-09-10T16:38:23.494Z,61.30
2018-09-10T16:40:52.921Z,60.20
2018-09-10T16:43:22.292Z,59.00
2018-09-10T16:45:51.654Z,62.00
2018-09-10T16:48:21.109Z,63.00
2018-09-10T16:50:50.632Z,61.30
2018-09-10T16:53:20.034Z,62.50
2018-09-10T16:55:49.397Z,64.00
2018-09-10T16:58:18.756Z,64.60
2018-09-10T17:00:48.183Z,63.30
2018-09-10T17:03:17.535Z,61.10
2018-09-10T17:05:46.899Z,64.10
2018-09-10T17:08:16.284Z,64.90
2018-09-10T17:10:45.650Z,66.00
2018-09-10T17:13:15.020Z,66.30
2018-09-10T17:15:44.408Z,66.80
2018-09-10T17:18:13.777Z,64.10
2018-09-10T17:20:43.138Z,62.20
2018-09-10T17:23:12.488Z,62.60
2018-09-10T17:25:41.852Z,63.40
2018-09-10T17:28:11.224Z,63.90
2018-09-10T17:30:40.596Z,60.90
2018-09-10T17:33:09.966Z,63.40
2018-09-10T17:35:39.332Z,62.30
2018-09-10T17:38:08.695Z,62.20
2018-09-10T17:40:38.064Z,62.90
2018-09-10T17:43:07.504Z,64.40
2018-09-10T17:45:37.172Z,62.90
2018-09-10T17:48:07.212Z,64.40
2018-09-10T17:50:36.939Z,64.50
2018-09-10T17:53:06.676Z,64.60
2018-09-10T17:55:36.101Z,64.20
2018-09-10T17:58:05.512Z,64.30
2018-09-10T18:00:39.328Z,65.20
2018-09-10T18:03:10.944Z,64.90
2018-09-10T18:05:40.731Z,64.80
2018-09-10T18:08:10.101Z,63.70
2018-09-10T18:10:40.039Z,65.40
2018-09-10T18:13:09.861Z,66.40
2018-09-10T18:15:39.547Z,64.80
2018-09-10T18:18:08.960Z,64.20
2018-09-10T18:20:38.454Z,62.70
2018-09-10T18:23:08.183Z,64.50
2018-09-10T18:25:37.783Z,64.40
2018-09-10T18:28:07.164Z,63.60
2018-09-10T18:30:36.533Z,59.70
2018-09-10T18:33:06.020Z,60.30
2018-09-10T18:35:35.687Z,63.00
2018-09-10T18:38:05.079Z,58.40
2018-09-10T18:40:34.453Z,59.20
2018-09-10T18:43:03.829Z,56.60
2018-09-10T18:45:33.209Z,56.20
2018-09-10T18:48:02.640Z,59.90
2018-09-10T18:50:32.011Z,60.50
2018-09-10T18:53:01.373Z,57.60
2018-09-10T18:55:30.832Z,56.40
2018-09-10T18:58:00.216Z,55.50
2018-09-10T19:00:29.589Z,55.90
2018-09-10T19:02:58.992Z,56.10
2018-09-10T19:05:28.386Z,57.10
2018-09-10T19:07:57.793Z,56.30
2018-09-10T19:10:27.213Z,59.40
2018-09-10T19:12:56.617Z,57.10
2018-09-10T19:15:25.986Z,59.20
2018-09-10T19:17:55.412Z,62.70
2018-09-10T19:20:24.762Z,58.30
2018-09-10T19:22:54.132Z,59.40
2018-09-10T19:25:23.565Z,57.50
2018-09-10T19:27:52.937Z,58.20
2018-09-10T19:30:22.382Z,57.90
2018-09-10T19:32:51.749Z,58.40
2018-09-10T19:35:21.122Z,61.30
2018-09-10T19:37:50.487Z,58.00
2018-09-10T19:40:19.852Z,59.20
2018-09-10T19:42:49.235Z,59.60
2018-09-10T19:45:18.621Z,61.80
2018-09-10T19:47:48.025Z,59.30
2018-09-10T19:50:17.410Z,61.40
2018-09-10T19:52:46.802Z,63.50
2018-09-10T19:55:16.191Z,60.70
2018-09-10T19:57:45.561Z,58.40
2018-09-10T20:00:14.996Z,62.50
2018-09-10T20:02:44.408Z,61.10
2018-09-10T20:05:13.773Z,59.70
2018-09-10T20:07:43.254Z,60.90
2018-09-10T20:10:12.700Z,61.20
2018-09-10T20:12:42.092Z,60.80
2018-09-10T20:15:11.479Z,62.60
2018-09-10T20:17:40.853Z,62.40
2018-09-10T20:20:10.263Z,60.90
2018-09-10T20:22:39.652Z,60.00
2018-09-10T20:25:09.032Z,58.60
2018-09-10T20:27:38.877Z,59.50
2018-09-10T20:30:08.805Z,61.10
2018-09-10T20:32:38.666Z,59.80
2018-09-10T20:35:08.139Z,59.30
2018-09-10T20:37:37.528Z,61.90
2018-09-10T20:40:06.981Z,61.90
2018-09-10T20:42:36.359Z,62.30
2018-09-10T20:45:06.401Z,62.50
2018-09-10T20:47:35.791Z,63.20
2018-09-10T20:50:05.272Z,60.60
2018-09-10T20:52:34.646Z,61.40
2018-09-10T20:55:04.048Z,61.40
2018-09-10T20:57:33.408Z,61.00
2018-09-10T21:00:02.761Z,59.70
2018-09-10T21:02:32.129Z,58.80
2018-09-10T21:05:01.497Z,59.00
2018-09-10T21:07:30.915Z,59.00
2018-09-10T21:10:00.255Z,59.50
2018-09-10T21:12:29.615Z,59.70
2018-09-10T21:14:58.972Z,62.40
2018-09-10T21:17:28.648Z,59.60
2018-09-10T21:19:58.456Z,61.40
2018-09-10T21:22:28.204Z,63.50
2018-09-10T21:24:57.899Z,61.00
2018-09-10T21:27:27.508Z,60.60
2018-09-10T21:29:57.208Z,59.80
2018-09-10T21:32:26.884Z,61.20
2018-09-10T21:34:56.537Z,60.20
2018-09-10T21:37:26.200Z,59.60
2018-09-10T21:39:55.963Z,59.40
2018-09-10T21:42:25.663Z,60.60
2018-09-10T21:44:55.332Z,58.90
2018-09-10T21:47:25.074Z,61.90
2018-09-10T21:49:54.857Z,59.50
2018-09-10T21:52:24.517Z,59.10
2018-09-10T21:54:54.279Z,58.00
2018-09-10T21:57:24.042Z,59.70
2018-09-10T21:59:53.723Z,58.70
2018-09-10T22:02:23.447Z,59.30
2018-09-10T22:04:53.063Z,59.40
2018-09-10T22:07:22.742Z,60.40
2018-09-10T22:09:52.379Z,63.80
2018-09-10T22:12:22.172Z,61.10
2018-09-10T22:14:51.959Z,60.70
2018-09-10T22:17:21.823Z,61.00
2018-09-10T22:19:51.516Z,59.90
2018-09-10T22:22:21.449Z,59.40
2018-09-10T22:24:51.132Z,59.50
2018-09-10T22:27:20.848Z,59.30
2018-09-10T22:29:50.432Z,58.90
2018-09-10T22:32:20.227Z,59.30
2018-09-10T22:34:49.894Z,59.00
2018-09-10T22:37:19.645Z,59.10
2018-09-10T22:39:49.410Z,59.70
2018-09-10T22:42:19.272Z,60.10
2018-09-10T22:44:48.821Z,59.00
2018-09-10T22:47:18.504Z,59.50
2018-09-10T22:49:48.196Z,60.00
2018-09-10T22:52:17.967Z,59.30
2018-09-10T22:54:47.543Z,60.50
2018-09-10T22:57:17.174Z,59.40
2018-09-10T22:59:46.852Z,60.10
2018-09-10T23:02:16.653Z,59.80
2018-09-10T23:04:46.297Z,62.20
2018-09-10T23:07:16.065Z,60.40
2018-09-10T23:09:45.717Z,59.70
2018-09-10T23:12:15.580Z,60.30
2018-09-10T23:14:45.281Z,61.10
2018-09-10T23:17:15.045Z,61.50
2018-09-10T23:19:44.666Z,61.50
2018-09-10T23:22:14.340Z,60.70
2018-09-10T23:24:44.132Z,61.00
2018-09-10T23:27:13.887Z,61.00
2018-09-10T23:29:43.557Z,61.90
2018-09-10T23:32:13.316Z,60.90
2018-09-10T23:34:42.900Z,61.00
2018-09-10T23:37:12.619Z,61.20
2018-09-10T23:39:42.332Z,60.50
2018-09-10T23:42:12.092Z,60.60
2018-09-10T23:44:41.760Z,61.80
2018-09-10T23:47:11.440Z,61.80
2018-09-10T23:49:41.237Z,60.30
2018-09-10T23:52:10.983Z,60.70
2018-09-10T23:54:40.457Z,61.40
2018-09-10T23:57:10.161Z,61.90
2018-09-10T23:59:39.926Z,61.20
